createdAt,value
2023-01-08T00:01:16.684Z,7.05
2023-01-08T00:03:43.974Z,7.53
2023-01-08T00:06:14.182Z,8.30
2023-01-08T00:08:42.000Z,7.03
2023-01-08T00:11:09.257Z,5.47
2023-01-08T00:13:36.757Z,7.40
2023-01-08T00:16:06.064Z,5.65
2023-01-08T00:18:33.619Z,6.63
2023-01-08T00:21:01.233Z,6.85
2023-01-08T00:23:29.717Z,7.97
2023-01-08T00:25:56.769Z,7.63
2023-01-08T00:28:23.989Z,8.35
2023-01-08T00:30:51.115Z,6.88
2023-01-08T00:33:18.279Z,7.50
2023-01-08T00:35:45.537Z,5.88
2023-01-08T00:38:13.009Z,5.47
2023-01-08T00:40:40.836Z,7.53
2023-01-08T00:43:08.504Z,7.28
2023-01-08T00:45:35.855Z,6.53
2023-01-08T00:48:03.033Z,8.18
2023-01-08T00:50:30.051Z,8.77
2023-01-08T00:52:57.086Z,13.52
2023-01-08T00:55:24.265Z,5.95
2023-01-08T00:57:51.591Z,8.43
2023-01-08T01:00:18.733Z,5.55
2023-01-08T01:02:46.126Z,4.32
2023-01-08T01:05:15.720Z,5.13
2023-01-08T01:07:44.061Z,4.25
2023-01-08T01:10:12.724Z,3.70
2023-01-08T01:12:39.949Z,4.78
2023-01-08T01:15:08.752Z,3.83
2023-01-08T01:17:38.341Z,8.48
2023-01-08T01:20:06.735Z,4.30
2023-01-08T01:22:34.014Z,4.05
2023-01-08T01:25:01.169Z,5.47
2023-01-08T01:27:28.219Z,4.65
2023-01-08T01:29:55.495Z,5.30
2023-01-08T01:32:22.467Z,4.78
2023-01-08T01:34:49.551Z,5.72
2023-01-08T01:37:17.095Z,7.47
2023-01-08T01:39:44.209Z,4.35
2023-01-08T01:42:35.093Z,4.47
2023-01-08T01:45:14.010Z,6.75
2023-01-08T01:47:42.147Z,3.92
2023-01-08T01:50:20.506Z,5.85
2023-01-08T01:53:02.072Z,4.80
2023-01-08T01:55:29.229Z,4.88
2023-01-08T01:58:23.442Z,4.35
2023-01-08T02:00:52.734Z,8.23
2023-01-08T02:03:25.047Z,5.07
2023-01-08T02:06:00.696Z,7.30
2023-01-08T02:08:42.792Z,5.55
2023-01-08T02:11:34.871Z,7.72
2023-01-08T02:14:38.920Z,6.40
2023-01-08T02:17:12.064Z,6.78
2023-01-08T02:19:46.320Z,4.93
2023-01-08T02:22:25.484Z,6.32
2023-01-08T02:25:23.446Z,6.00
2023-01-08T02:27:52.907Z,6.13
2023-01-08T02:30:20.294Z,6.00
2023-01-08T02:32:47.359Z,7.15
2023-01-08T02:35:14.461Z,7.95
2023-01-08T02:37:42.380Z,9.13
2023-01-08T02:40:31.352Z,5.95
2023-01-08T02:43:22.524Z,11.93
2023-01-08T02:45:54.311Z,8.18
2023-01-08T02:48:27.082Z,8.93
2023-01-08T02:50:56.719Z,10.77
2023-01-08T02:53:28.109Z,12.90
2023-01-08T02:56:10.534Z,8.90
2023-01-08T02:58:39.242Z,7.30
2023-01-08T03:01:11.022Z,9.98
2023-01-08T03:03:40.906Z,9.73
2023-01-08T03:06:17.402Z,8.88
2023-01-08T03:08:47.413Z,7.93
2023-01-08T03:11:19.942Z,6.65
2023-01-08T03:14:09.922Z,6.20
2023-01-08T03:16:45.338Z,7.32
2023-01-08T03:19:17.764Z,4.60
2023-01-08T03:21:47.039Z,6.45
2023-01-08T03:24:19.434Z,10.60
2023-01-08T03:26:48.110Z,5.07
2023-01-08T03:29:19.578Z,7.35
2023-01-08T03:31:48.023Z,7.85
2023-01-08T03:34:16.654Z,8.82
2023-01-08T03:36:48.546Z,8.18
2023-01-08T03:39:28.812Z,6.82
2023-01-08T03:42:00.896Z,6.05
2023-01-08T03:44:28.102Z,7.65
2023-01-08T03:46:57.128Z,4.25
2023-01-08T03:49:27.439Z,7.75
2023-01-08T03:51:54.814Z,9.23
2023-01-08T03:54:30.385Z,5.43
2023-01-08T03:56:57.482Z,9.85
2023-01-08T03:59:24.606Z,7.30
2023-01-08T04:01:52.081Z,4.78
2023-01-08T04:04:19.306Z,6.60
2023-01-08T04:06:46.369Z,5.25
2023-01-08T04:09:13.678Z,4.72
2023-01-08T04:11:40.723Z,5.40
2023-01-08T04:14:07.869Z,6.57
2023-01-08T04:16:35.398Z,5.05
2023-01-08T04:19:02.428Z,5.63
2023-01-08T04:21:29.669Z,8.80
2023-01-08T04:23:57.533Z,5.53
2023-01-08T04:26:24.552Z,4.65
2023-01-08T04:28:51.589Z,7.45
2023-01-08T04:31:18.767Z,7.07
2023-01-08T04:33:45.855Z,6.50
2023-01-08T04:36:13.030Z,6.15
2023-01-08T04:38:40.160Z,7.03
2023-01-08T04:41:07.675Z,10.35
2023-01-08T04:43:34.939Z,4.80
2023-01-08T04:46:04.575Z,4.38
2023-01-08T04:48:31.814Z,6.32
2023-01-08T04:51:00.512Z,4.22
2023-01-08T04:53:28.582Z,4.65
2023-01-08T04:55:55.785Z,7.72
2023-01-08T04:58:23.148Z,4.97
2023-01-08T05:00:50.272Z,3.17
2023-01-08T05:03:17.370Z,7.75
2023-01-08T05:05:44.405Z,5.80
2023-01-08T05:08:11.495Z,4.78
2023-01-08T05:10:38.501Z,3.85
2023-01-08T05:13:05.549Z,6.32
2023-01-08T05:15:32.675Z,6.60
2023-01-08T05:18:04.879Z,3.65
2023-01-08T05:20:35.254Z,4.45
2023-01-08T05:23:02.512Z,2.88
2023-01-08T05:25:29.550Z,4.72
2023-01-08T05:27:56.575Z,2.95
2023-01-08T05:30:23.643Z,5.05
2023-01-08T05:32:50.780Z,4.10
2023-01-08T05:35:18.071Z,5.13
2023-01-08T05:37:45.168Z,2.67
2023-01-08T05:40:12.693Z,5.45
2023-01-08T05:42:39.782Z,5.15
2023-01-08T05:45:08.343Z,4.82
2023-01-08T05:47:35.947Z,2.55
2023-01-08T05:50:03.192Z,2.13
2023-01-08T05:52:30.267Z,2.88
2023-01-08T05:54:57.436Z,3.78
2023-01-08T05:57:24.478Z,3.78
2023-01-08T05:59:51.549Z,3.50
2023-01-08T06:02:18.586Z,4.30
2023-01-08T06:04:45.614Z,6.47
2023-01-08T06:07:12.975Z,3.03
2023-01-08T06:09:40.039Z,3.50
2023-01-08T06:12:07.456Z,3.20
2023-01-08T06:14:34.568Z,3.97
2023-01-08T06:17:01.646Z,3.70
2023-01-08T06:19:28.667Z,3.53
2023-01-08T06:21:55.761Z,2.97
2023-01-08T06:24:22.800Z,2.08
2023-01-08T06:26:49.819Z,3.25
2023-01-08T06:29:17.004Z,2.13
2023-01-08T06:31:44.136Z,2.65
2023-01-08T06:34:12.189Z,2.35
2023-01-08T06:36:39.310Z,3.55
2023-01-08T06:39:09.689Z,5.00
2023-01-08T06:41:36.669Z,2.13
2023-01-08T06:44:03.844Z,2.63
2023-01-08T06:46:30.952Z,4.82
2023-01-08T06:48:58.085Z,3.55
2023-01-08T06:51:25.157Z,5.82
2023-01-08T06:53:52.145Z,5.35
2023-01-08T06:56:19.213Z,4.45
2023-01-08T06:58:46.882Z,6.10
2023-01-08T07:01:17.692Z,4.65
2023-01-08T07:03:44.887Z,2.00
2023-01-08T07:06:21.102Z,2.20
2023-01-08T07:08:48.600Z,3.65
2023-01-08T07:11:16.503Z,4.50
2023-01-08T07:13:43.626Z,1.80
2023-01-08T07:16:13.417Z,3.28
2023-01-08T07:18:40.811Z,2.08
2023-01-08T07:21:08.544Z,2.17
2023-01-08T07:23:36.646Z,3.30
2023-01-08T07:26:05.592Z,2.72
2023-01-08T07:28:32.824Z,1.52
2023-01-08T07:31:04.708Z,1.00
2023-01-08T07:33:32.201Z,1.02
2023-01-08T07:35:59.308Z,1.50
2023-01-08T07:38:26.667Z,1.83
2023-01-08T07:40:53.807Z,1.02
2023-01-08T07:43:21.015Z,1.60
2023-01-08T07:45:48.125Z,2.90
2023-01-08T07:48:16.643Z,1.52
2023-01-08T07:50:44.318Z,3.47
2023-01-08T07:53:13.118Z,2.75
2023-01-08T07:55:40.241Z,2.20
2023-01-08T07:58:12.678Z,4.05
2023-01-08T08:00:40.324Z,2.40
2023-01-08T08:03:12.068Z,3.40
2023-01-08T08:05:39.685Z,2.80
2023-01-08T08:08:11.661Z,1.88
2023-01-08T08:10:40.277Z,3.03
2023-01-08T08:13:07.955Z,5.43
2023-01-08T08:15:35.891Z,3.53
2023-01-08T08:18:03.248Z,2.25
2023-01-08T08:20:30.536Z,2.67
2023-01-08T08:23:05.206Z,3.17
2023-01-08T08:25:32.272Z,3.28
2023-01-08T08:28:00.501Z,3.78
2023-01-08T08:30:29.087Z,4.25
2023-01-08T08:32:58.963Z,6.15
2023-01-08T08:35:25.997Z,3.85
2023-01-08T08:37:54.387Z,3.55
2023-01-08T08:40:21.508Z,3.65
2023-01-08T08:42:48.524Z,4.10
2023-01-08T08:45:15.713Z,4.88
2023-01-08T08:47:42.773Z,6.38
2023-01-08T08:50:10.422Z,3.15
2023-01-08T08:52:37.898Z,4.47
2023-01-08T08:55:05.243Z,5.22
2023-01-08T08:57:32.342Z,3.22
2023-01-08T09:00:01.304Z,4.22
2023-01-08T09:02:28.702Z,2.22
2023-01-08T09:04:55.954Z,3.58
2023-01-08T09:07:22.972Z,4.57
2023-01-08T09:09:50.074Z,2.78
2023-01-08T09:12:17.219Z,4.07
2023-01-08T09:14:44.248Z,4.68
2023-01-08T09:17:11.293Z,4.57
2023-01-08T09:19:39.157Z,3.65
2023-01-08T09:22:06.132Z,1.55
2023-01-08T09:24:33.307Z,2.67
2023-01-08T09:27:00.462Z,7.45
2023-01-08T09:29:27.485Z,5.82
2023-01-08T09:31:54.554Z,4.05
2023-01-08T09:34:21.837Z,2.78
2023-01-08T09:36:48.863Z,3.65
2023-01-08T09:39:15.881Z,2.10
2023-01-08T09:41:46.697Z,2.75
2023-01-08T09:44:23.024Z,5.40
2023-01-08T09:46:50.567Z,4.93
2023-01-08T09:49:25.161Z,4.53
2023-01-08T09:51:52.711Z,3.88
2023-01-08T09:54:27.537Z,4.93
2023-01-08T09:56:55.091Z,2.83
2023-01-08T09:59:22.689Z,5.53
2023-01-08T10:01:50.493Z,2.58
2023-01-08T10:04:23.364Z,5.97
2023-01-08T10:07:00.552Z,5.53
2023-01-08T10:09:32.339Z,2.80
2023-01-08T10:12:02.858Z,5.43
2023-01-08T10:14:34.422Z,7.20
2023-01-08T10:17:11.542Z,6.10
2023-01-08T10:19:39.267Z,3.50
2023-01-08T10:22:15.378Z,9.73
2023-01-08T10:24:43.549Z,5.68
2023-01-08T10:27:28.688Z,3.90
2023-01-08T10:30:06.604Z,7.03
2023-01-08T10:32:37.134Z,6.47
2023-01-08T10:35:06.978Z,4.53
2023-01-08T10:37:47.940Z,3.63
2023-01-08T10:40:27.120Z,6.63
2023-01-08T10:42:56.407Z,10.63
2023-01-08T10:45:25.920Z,9.20
2023-01-08T10:47:58.291Z,10.02
2023-01-08T10:50:31.108Z,7.35
2023-01-08T10:53:26.025Z,12.68
2023-01-08T10:56:04.531Z,13.32
2023-01-08T10:58:42.672Z,10.00
2023-01-08T11:01:39.278Z,10.13
2023-01-08T11:04:07.653Z,10.02
2023-01-08T11:06:41.511Z,10.02
2023-01-08T11:11:47.054Z,6.35
2023-01-08T11:14:28.353Z,7.72
2023-01-08T11:16:56.658Z,4.72
2023-01-08T11:19:30.395Z,8.88
2023-01-08T11:22:00.350Z,6.22
2023-01-08T11:24:33.433Z,3.92
2023-01-08T11:27:07.226Z,7.03
2023-01-08T11:34:54.338Z,6.18
2023-01-08T11:37:27.775Z,6.13
2023-01-08T11:39:56.930Z,7.13
2023-01-08T11:42:48.423Z,5.93
2023-01-08T11:45:27.251Z,13.13
2023-01-08T11:48:06.282Z,19.90
2023-01-08T11:50:50.292Z,14.90
2023-01-08T11:53:59.933Z,7.78
2023-01-08T11:56:51.319Z,10.27
2023-01-08T11:59:26.134Z,7.90
2023-01-08T12:02:06.817Z,5.65
2023-01-08T12:05:07.857Z,9.90
2023-01-08T12:07:47.498Z,7.35
2023-01-08T12:10:20.459Z,10.57
2023-01-08T12:13:00.131Z,10.30
2023-01-08T12:15:35.774Z,12.63
2023-01-08T12:18:27.864Z,22.73
2023-01-08T12:21:25.495Z,14.32
2023-01-08T12:24:21.816Z,17.55
2023-01-08T12:26:51.918Z,9.45
2023-01-08T12:29:46.263Z,9.88
2023-01-08T12:32:28.713Z,7.63
2023-01-08T12:35:04.940Z,16.17
2023-01-08T12:37:41.835Z,7.28
2023-01-08T12:40:24.268Z,6.85
2023-01-08T12:43:00.622Z,9.57
2023-01-08T12:45:30.996Z,12.02
2023-01-08T12:48:06.326Z,7.15
2023-01-08T12:50:48.489Z,5.55
2023-01-08T12:53:27.152Z,9.18
2023-01-08T12:56:43.921Z,8.18
2023-01-08T12:59:22.631Z,6.75
2023-01-08T13:01:56.115Z,6.10
2023-01-08T13:04:23.968Z,6.68
2023-01-08T13:07:18.818Z,7.85
2023-01-08T13:09:46.430Z,7.20
2023-01-08T13:12:15.566Z,10.10
2023-01-08T13:14:51.003Z,7.90
2023-01-08T13:17:21.640Z,8.38
2023-01-08T13:19:59.690Z,9.23
2023-01-08T13:22:29.856Z,7.75
2023-01-08T13:25:13.557Z,12.13
2023-01-08T13:27:40.718Z,8.63
2023-01-08T13:30:41.189Z,8.32
2023-01-08T13:33:36.294Z,8.32
2023-01-08T13:36:23.578Z,9.38
2023-01-08T13:39:02.329Z,12.40
2023-01-08T13:41:33.340Z,15.50
2023-01-08T13:44:04.650Z,23.02
2023-01-08T13:46:47.293Z,10.80
2023-01-08T13:49:57.018Z,7.13
2023-01-08T13:52:35.473Z,9.77
2023-01-08T13:55:05.836Z,13.82
2023-01-08T13:57:40.036Z,12.23
2023-01-08T14:00:10.663Z,9.73
2023-01-08T14:02:50.676Z,11.07
2023-01-08T14:05:34.617Z,8.75
2023-01-08T14:08:01.689Z,7.82
2023-01-08T14:10:30.162Z,10.63
2023-01-08T14:13:07.044Z,14.50
2023-01-08T14:15:35.207Z,20.95
2023-01-08T14:18:03.782Z,19.02
2023-01-08T14:20:34.293Z,27.25
2023-01-08T14:23:02.714Z,13.63
2023-01-08T14:25:30.446Z,14.18
2023-01-08T14:28:06.611Z,12.38
2023-01-08T14:30:34.139Z,22.60
2023-01-08T14:33:02.020Z,11.45
2023-01-08T14:35:34.076Z,12.85
2023-01-08T14:38:03.056Z,13.25
2023-01-08T14:40:41.402Z,13.70
2023-01-08T14:43:14.576Z,14.35
2023-01-08T14:45:51.838Z,19.52
2023-01-08T14:48:34.815Z,10.93
2023-01-08T14:51:03.487Z,10.23
2023-01-08T14:53:37.710Z,18.17
2023-01-08T14:56:07.074Z,7.75
2023-01-08T14:58:43.780Z,13.43
2023-01-08T15:01:31.333Z,8.55
2023-01-08T15:04:18.130Z,8.98
2023-01-08T15:06:45.659Z,11.65
2023-01-08T15:09:24.889Z,10.45
2023-01-08T15:11:57.228Z,13.05
2023-01-08T15:14:25.639Z,9.95
2023-01-08T15:16:56.371Z,6.97
2023-01-08T15:19:26.338Z,18.20
2023-01-08T15:21:59.537Z,10.95
2023-01-08T15:24:41.675Z,9.23
2023-01-08T15:27:18.129Z,7.50
2023-01-08T15:29:51.137Z,10.80
2023-01-08T15:32:18.120Z,7.15
2023-01-08T15:34:46.562Z,11.93
2023-01-08T15:37:15.378Z,9.07
2023-01-08T15:39:43.456Z,20.20
2023-01-08T15:42:43.185Z,8.40
2023-01-08T15:45:14.972Z,11.55
2023-01-08T15:47:41.976Z,8.07
2023-01-08T15:50:10.229Z,6.30
2023-01-08T15:52:40.272Z,7.78
2023-01-08T15:55:08.191Z,7.40
2023-01-08T15:57:35.279Z,9.75
2023-01-08T16:00:03.446Z,7.53
2023-01-08T16:02:30.454Z,9.07
2023-01-08T16:04:57.952Z,8.73
2023-01-08T16:07:24.977Z,8.82
2023-01-08T16:09:52.013Z,10.02
2023-01-08T16:12:19.087Z,9.52
2023-01-08T16:14:46.160Z,12.20
2023-01-08T16:17:13.136Z,9.68
2023-01-08T16:19:40.261Z,12.38
2023-01-08T16:22:07.277Z,12.75
2023-01-08T16:24:35.007Z,13.07
2023-01-08T16:27:02.110Z,8.05
2023-01-08T16:29:29.363Z,10.52
2023-01-08T16:31:56.534Z,5.75
2023-01-08T16:34:24.500Z,8.35
2023-01-08T16:36:51.776Z,10.27
2023-01-08T16:39:19.608Z,12.35
2023-01-08T16:41:47.996Z,11.70
2023-01-08T16:44:19.531Z,11.25
2023-01-08T16:46:47.469Z,10.20
2023-01-08T16:49:14.804Z,10.82
2023-01-08T16:51:42.474Z,13.02
2023-01-08T16:54:13.063Z,16.15
2023-01-08T16:56:40.348Z,14.68
2023-01-08T16:59:18.218Z,12.27
2023-01-08T17:01:49.751Z,12.23
2023-01-08T17:04:16.756Z,7.70
2023-01-08T17:06:43.828Z,8.70
2023-01-08T17:09:11.821Z,11.63
2023-01-08T17:11:39.433Z,10.55
2023-01-08T17:14:06.626Z,14.77
2023-01-08T17:16:33.713Z,14.57
2023-01-08T17:19:00.796Z,9.50
2023-01-08T17:21:27.816Z,13.15
2023-01-08T17:23:54.935Z,8.27
2023-01-08T17:26:22.034Z,9.85
2023-01-08T17:28:49.176Z,13.98
2023-01-08T17:31:19.118Z,17.20
2023-01-08T17:33:50.561Z,11.20
2023-01-08T17:36:23.497Z,13.05
2023-01-08T17:38:51.041Z,8.10
2023-01-08T17:41:37.406Z,12.80
2023-01-08T17:44:07.165Z,11.85
2023-01-08T17:46:42.465Z,8.23
2023-01-08T17:49:11.475Z,17.10
2023-01-08T17:51:41.088Z,13.20
2023-01-08T17:54:12.750Z,13.77
2023-01-08T17:56:39.784Z,16.48
2023-01-08T17:59:07.498Z,15.20
2023-01-08T18:01:35.400Z,11.13
2023-01-08T18:04:03.271Z,11.32
2023-01-08T18:06:30.546Z,11.18
2023-01-08T18:08:57.747Z,18.13
2023-01-08T18:11:25.718Z,18.60
2023-01-08T18:13:57.561Z,23.75
2023-01-08T18:16:25.091Z,17.88
2023-01-08T18:18:53.022Z,12.52
2023-01-08T18:21:20.174Z,15.95
2023-01-08T18:23:50.617Z,19.40
2023-01-08T18:26:21.033Z,14.65
2023-01-08T18:28:48.690Z,16.42
2023-01-08T18:31:16.120Z,13.07
2023-01-08T18:33:43.421Z,10.73
2023-01-08T18:36:12.882Z,13.48
2023-01-08T18:38:42.511Z,5.07
2023-01-08T18:41:11.888Z,10.43
2023-01-08T18:43:39.080Z,8.68
2023-01-08T18:46:08.247Z,9.10
2023-01-08T18:48:36.250Z,11.73
2023-01-08T18:51:05.951Z,8.30
2023-01-08T18:53:34.572Z,7.47
2023-01-08T18:56:02.229Z,9.07
2023-01-08T18:58:30.167Z,7.82
2023-01-08T19:01:04.991Z,6.63
2023-01-08T19:03:32.144Z,6.63
2023-01-08T19:05:59.557Z,6.13
2023-01-08T19:08:26.645Z,8.88
2023-01-08T19:10:53.756Z,8.35
2023-01-08T19:13:21.040Z,9.10
2023-01-08T19:15:48.121Z,16.10
2023-01-08T19:18:15.109Z,6.45
2023-01-08T19:20:46.471Z,9.93
2023-01-08T19:23:15.789Z,6.55
2023-01-08T19:25:43.084Z,7.22
2023-01-08T19:28:10.152Z,10.10
2023-01-08T19:30:37.988Z,9.10
2023-01-08T19:33:05.175Z,7.85
2023-01-08T19:35:41.920Z,11.13
2023-01-08T19:38:09.071Z,9.32
2023-01-08T19:40:36.163Z,12.25
2023-01-08T19:43:21.972Z,11.55
2023-01-08T19:45:49.104Z,11.35
2023-01-08T19:48:16.126Z,10.23
2023-01-08T19:50:43.950Z,9.35
2023-01-08T19:53:13.920Z,11.65
2023-01-08T19:55:41.630Z,11.52
2023-01-08T19:58:08.906Z,10.68
2023-01-08T20:00:39.170Z,9.50
2023-01-08T20:03:06.686Z,8.95
2023-01-08T20:05:34.056Z,12.98
2023-01-08T20:08:01.125Z,12.15
2023-01-08T20:10:28.152Z,11.70
2023-01-08T20:12:55.219Z,10.38
2023-01-08T20:15:22.314Z,9.88
2023-01-08T20:17:49.322Z,10.73
2023-01-08T20:20:16.723Z,10.35
2023-01-08T20:22:43.746Z,15.10
2023-01-08T20:25:11.205Z,9.70
2023-01-08T20:27:38.244Z,21.60
2023-01-08T20:30:07.141Z,14.88
2023-01-08T20:32:34.388Z,11.43
2023-01-08T20:35:01.403Z,17.80
2023-01-08T20:37:29.762Z,11.20
2023-01-08T20:39:56.858Z,12.95
2023-01-08T20:42:33.344Z,12.50
2023-01-08T20:45:01.384Z,8.57
2023-01-08T20:47:28.539Z,11.75
2023-01-08T20:49:55.588Z,12.10
2023-01-08T20:52:22.654Z,20.50
2023-01-08T20:54:49.780Z,13.45
2023-01-08T20:57:16.910Z,13.13
2023-01-08T20:59:43.921Z,16.48
2023-01-08T21:02:12.089Z,15.90
2023-01-08T21:04:42.163Z,13.95
2023-01-08T21:07:09.211Z,18.98
2023-01-08T21:09:36.352Z,13.15
2023-01-08T21:12:03.632Z,20.88
2023-01-08T21:14:30.700Z,12.18
2023-01-08T21:16:57.858Z,13.40
2023-01-08T21:19:24.916Z,14.05
2023-01-08T21:21:51.955Z,12.35
2023-01-08T21:24:20.500Z,9.23
2023-01-08T21:26:47.670Z,10.05
2023-01-08T21:29:17.193Z,12.13
2023-01-08T21:31:45.329Z,11.93
2023-01-08T21:34:12.607Z,9.82
2023-01-08T21:36:39.951Z,10.20
2023-01-08T21:39:07.980Z,10.18
2023-01-08T21:41:53.537Z,9.45
2023-01-08T21:44:41.906Z,14.90
2023-01-08T21:47:20.410Z,7.50
2023-01-08T21:49:47.502Z,10.05
2023-01-08T21:52:33.566Z,9.70
2023-01-08T21:55:01.257Z,6.47
2023-01-08T21:57:28.855Z,8.02
2023-01-08T21:59:56.656Z,8.80
2023-01-08T22:02:24.611Z,8.75
2023-01-08T22:04:55.184Z,11.05
2023-01-08T22:07:22.543Z,7.70
2023-01-08T22:09:49.639Z,7.70
2023-01-08T22:12:17.197Z,7.80
2023-01-08T22:14:45.346Z,9.30
2023-01-08T22:17:13.582Z,9.73
2023-01-08T22:19:41.334Z,10.57
2023-01-08T22:22:10.926Z,11.48
2023-01-08T22:24:39.455Z,7.45
2023-01-08T22:27:08.233Z,7.90
2023-01-08T22:29:36.250Z,10.45
2023-01-08T22:32:03.475Z,11.60
2023-01-08T22:34:35.279Z,8.98
2023-01-08T22:37:02.607Z,9.07
2023-01-08T22:39:29.880Z,9.27
2023-01-08T22:41:57.542Z,11.80
2023-01-08T22:44:24.806Z,5.65
2023-01-08T22:46:51.817Z,7.78
2023-01-08T22:49:18.930Z,6.07
2023-01-08T22:51:46.030Z,3.42
2023-01-08T22:54:14.093Z,9.93
2023-01-08T22:56:41.213Z,8.38
2023-01-08T22:59:08.267Z,6.05
2023-01-08T23:01:35.583Z,5.65
2023-01-08T23:04:02.828Z,7.13
2023-01-08T23:06:31.319Z,4.82
2023-01-08T23:08:59.002Z,6.82
2023-01-08T23:11:27.295Z,4.65
2023-01-08T23:13:55.350Z,5.70
2023-01-08T23:16:25.922Z,10.40
2023-01-08T23:18:54.172Z,5.30
2023-01-08T23:21:23.382Z,3.67
2023-01-08T23:23:50.887Z,4.18
2023-01-08T23:26:27.197Z,10.85
2023-01-08T23:28:55.411Z,6.68
2023-01-08T23:31:25.763Z,4.82
2023-01-08T23:33:53.215Z,6.95
2023-01-08T23:36:21.582Z,4.53
2023-01-08T23:38:50.923Z,6.32
2023-01-08T23:41:19.655Z,5.65
2023-01-08T23:43:49.010Z,4.68
2023-01-08T23:46:17.060Z,4.22
2023-01-08T23:48:44.445Z,5.35
2023-01-08T23:51:11.531Z,3.17
2023-01-08T23:53:38.773Z,4.72
2023-01-08T23:56:06.266Z,3.22
2023-01-08T23:58:33.439Z,2.75
